createdAt,value
2023-05-18T00:02:26.731Z,8.60
2023-05-18T00:04:54.249Z,8.50
2023-05-18T00:07:21.821Z,8.40
2023-05-18T00:09:49.471Z,8.40
2023-05-18T00:12:17.045Z,8.60
2023-05-18T00:14:45.459Z,8.50
2023-05-18T00:17:13.056Z,8.40
2023-05-18T00:19:40.655Z,8.40
2023-05-18T00:22:09.057Z,8.30
2023-05-18T00:24:37.217Z,8.30
2023-05-18T00:27:04.265Z,8.30
2023-05-18T00:29:32.118Z,8.30
2023-05-18T00:31:59.842Z,8.30
2023-05-18T00:34:27.341Z,8.20
2023-05-18T00:36:55.014Z,8.20
2023-05-18T00:39:23.390Z,8.10
2023-05-18T00:41:51.007Z,8.10
2023-05-18T00:44:18.705Z,8.10
2023-05-18T00:46:47.081Z,8.00
2023-05-18T00:49:14.686Z,8.00
2023-05-18T00:51:42.344Z,8.00
2023-05-18T00:54:09.961Z,8.00
2023-05-18T00:56:40.139Z,7.90
2023-05-18T00:59:07.850Z,7.90
2023-05-18T01:01:35.550Z,7.80
2023-05-18T01:04:03.269Z,7.70
2023-05-18T01:06:33.382Z,7.70
2023-05-18T01:09:01.003Z,7.60
2023-05-18T01:11:50.448Z,7.60
2023-05-18T01:14:43.503Z,7.60
2023-05-18T01:17:26.607Z,7.50
2023-05-18T01:20:12.544Z,7.50
2023-05-18T01:22:57.701Z,7.50
2023-05-18T01:25:34.085Z,7.40
2023-05-18T01:28:02.302Z,7.40
2023-05-18T01:30:29.911Z,7.40
2023-05-18T01:32:58.301Z,7.30
2023-05-18T01:35:26.441Z,7.30
2023-05-18T01:37:54.058Z,7.30
2023-05-18T01:40:21.691Z,7.30
2023-05-18T01:42:50.086Z,7.30
2023-05-18T01:45:17.703Z,7.30
2023-05-18T01:47:45.444Z,7.30
2023-05-18T01:50:18.484Z,7.30
2023-05-18T01:52:48.749Z,7.20
2023-05-18T01:55:16.372Z,7.20
2023-05-18T01:57:44.795Z,7.20
2023-05-18T02:00:12.382Z,7.10
2023-05-18T02:02:40.040Z,7.20
2023-05-18T02:05:07.739Z,7.20
2023-05-18T02:07:35.263Z,7.20
2023-05-18T02:10:02.906Z,7.20
2023-05-18T02:12:30.523Z,7.20
2023-05-18T02:14:58.131Z,7.20
2023-05-18T02:17:25.794Z,7.10
2023-05-18T02:19:53.387Z,7.10
2023-05-18T02:22:21.008Z,7.30
2023-05-18T02:24:48.602Z,7.30
2023-05-18T02:27:16.234Z,7.20
2023-05-18T02:29:43.838Z,7.10
2023-05-18T02:32:12.225Z,7.00
2023-05-18T02:34:39.882Z,7.00
2023-05-18T02:37:08.245Z,7.00
2023-05-18T02:39:35.847Z,7.00
2023-05-18T02:42:03.512Z,7.00
2023-05-18T02:44:31.139Z,6.90
2023-05-18T02:46:58.730Z,7.10
2023-05-18T02:49:26.380Z,7.10
2023-05-18T02:51:53.989Z,7.10
2023-05-18T02:54:21.603Z,7.10
2023-05-18T02:56:49.308Z,7.00
2023-05-18T02:59:17.616Z,7.30
2023-05-18T03:01:45.265Z,7.20
2023-05-18T03:04:13.620Z,7.20
2023-05-18T03:06:41.237Z,7.10
2023-05-18T03:09:09.607Z,7.10
2023-05-18T03:11:37.248Z,7.10
2023-05-18T03:14:04.862Z,7.00
2023-05-18T03:16:32.532Z,7.00
2023-05-18T03:19:00.167Z,7.00
2023-05-18T03:21:27.740Z,7.00
2023-05-18T03:23:56.086Z,6.90
2023-05-18T03:26:23.720Z,6.90
2023-05-18T03:28:51.322Z,6.80
2023-05-18T03:31:18.954Z,7.00
2023-05-18T03:33:46.844Z,7.00
2023-05-18T03:36:14.459Z,6.90
2023-05-18T03:38:42.062Z,6.90
2023-05-18T03:41:09.710Z,6.90
2023-05-18T03:43:37.310Z,6.80
2023-05-18T03:46:04.939Z,7.00
2023-05-18T03:48:32.567Z,7.00
2023-05-18T03:51:00.187Z,6.90
2023-05-18T03:53:27.793Z,6.90
2023-05-18T03:55:55.434Z,6.80
2023-05-18T03:58:23.049Z,6.70
2023-05-18T04:00:50.661Z,6.70
2023-05-18T04:03:18.751Z,6.60
2023-05-18T04:05:47.097Z,6.80
2023-05-18T04:08:14.979Z,6.80
2023-05-18T04:10:42.596Z,6.80
2023-05-18T04:13:10.188Z,7.00
2023-05-18T04:15:37.806Z,7.20
2023-05-18T04:18:05.486Z,7.40
2023-05-18T04:20:33.045Z,7.30
2023-05-18T04:23:00.668Z,7.00
2023-05-18T04:25:28.853Z,6.90
2023-05-18T04:27:55.919Z,7.10
2023-05-18T04:30:23.530Z,7.00
2023-05-18T04:32:51.257Z,7.00
2023-05-18T04:35:18.803Z,7.20
2023-05-18T04:37:46.410Z,7.10
2023-05-18T04:40:14.277Z,7.10
2023-05-18T04:42:47.403Z,7.00
2023-05-18T04:45:14.961Z,7.00
2023-05-18T04:47:42.657Z,7.00
2023-05-18T04:50:10.208Z,7.00
2023-05-18T04:52:37.823Z,7.00
2023-05-18T04:55:05.490Z,7.00
2023-05-18T04:57:33.111Z,7.00
2023-05-18T05:00:00.702Z,7.10
2023-05-18T05:02:29.069Z,7.10
2023-05-18T05:04:57.360Z,7.20
2023-05-18T05:07:24.946Z,7.20
2023-05-18T05:09:52.589Z,7.20
2023-05-18T05:12:20.203Z,7.30
2023-05-18T05:14:47.799Z,7.30
2023-05-18T05:17:15.448Z,7.40
2023-05-18T05:19:43.073Z,7.40
2023-05-18T05:22:10.715Z,7.40
2023-05-18T05:24:38.346Z,7.50
2023-05-18T05:27:06.933Z,7.60
2023-05-18T05:29:34.526Z,7.60
2023-05-18T05:32:02.732Z,7.70
2023-05-18T05:34:30.288Z,7.70
2023-05-18T05:36:57.914Z,7.80
2023-05-18T05:39:25.603Z,7.80
2023-05-18T05:41:53.230Z,7.90
2023-05-18T05:44:20.831Z,8.00
2023-05-18T05:46:49.029Z,8.30
2023-05-18T05:49:16.613Z,8.40
2023-05-18T05:51:44.961Z,8.70
2023-05-18T05:54:12.586Z,8.70
2023-05-18T05:56:40.507Z,8.70
2023-05-18T05:59:08.098Z,8.70
2023-05-18T06:01:35.848Z,8.80
2023-05-18T06:04:03.395Z,9.00
2023-05-18T06:06:30.990Z,9.10
2023-05-18T06:08:58.628Z,9.00
2023-05-18T06:11:26.235Z,9.00
2023-05-18T06:13:53.837Z,9.00
2023-05-18T06:16:22.304Z,9.30
2023-05-18T06:18:49.891Z,9.30
2023-05-18T06:21:17.484Z,9.40
2023-05-18T06:23:45.117Z,9.50
2023-05-18T06:26:12.729Z,9.60
2023-05-18T06:28:41.604Z,9.70
2023-05-18T06:31:08.009Z,9.80
2023-05-18T06:33:35.613Z,9.90
2023-05-18T06:36:03.217Z,10.00
2023-05-18T06:38:30.864Z,10.10
2023-05-18T06:40:58.479Z,10.20
2023-05-18T06:43:26.084Z,10.30
2023-05-18T06:45:53.749Z,10.40
2023-05-18T06:48:21.338Z,10.50
2023-05-18T06:50:48.941Z,10.60
2023-05-18T06:53:16.663Z,10.70
2023-05-18T06:55:44.276Z,10.80
2023-05-18T06:58:11.893Z,10.80
2023-05-18T07:00:39.584Z,10.90
2023-05-18T07:03:07.334Z,11.00
2023-05-18T07:05:36.895Z,11.00
2023-05-18T07:08:02.544Z,11.10
2023-05-18T07:10:30.037Z,11.20
2023-05-18T07:12:57.651Z,11.30
2023-05-18T07:15:26.056Z,11.50
2023-05-18T07:17:53.725Z,11.50
2023-05-18T07:20:23.127Z,11.60
2023-05-18T07:22:50.535Z,11.70
2023-05-18T07:25:18.917Z,11.80
2023-05-18T07:27:47.292Z,11.90
2023-05-18T07:30:15.715Z,11.90
2023-05-18T07:32:43.350Z,11.90
2023-05-18T07:35:10.944Z,12.00
2023-05-18T07:37:38.578Z,12.20
2023-05-18T07:40:06.236Z,12.50
2023-05-18T07:42:33.819Z,12.60
2023-05-18T07:45:01.448Z,12.60
2023-05-18T07:47:29.066Z,12.70
2023-05-18T07:49:56.683Z,12.80
2023-05-18T07:52:25.088Z,12.90
2023-05-18T07:54:52.732Z,12.90
2023-05-18T07:57:20.324Z,13.00
2023-05-18T07:59:47.993Z,13.00
2023-05-18T08:02:15.720Z,13.10
2023-05-18T08:04:43.279Z,13.10
2023-05-18T08:07:11.733Z,13.30
2023-05-18T08:09:39.348Z,13.30
2023-05-18T08:12:06.963Z,13.40
2023-05-18T08:14:34.595Z,13.40
2023-05-18T08:17:02.255Z,13.60
2023-05-18T08:19:29.995Z,13.80
2023-05-18T08:21:57.502Z,13.90
2023-05-18T08:24:25.093Z,13.90
2023-05-18T08:26:52.693Z,13.90
2023-05-18T08:29:20.341Z,13.90
2023-05-18T08:31:49.691Z,13.90
2023-05-18T08:34:15.548Z,14.00
2023-05-18T08:36:43.189Z,14.00
2023-05-18T08:39:11.585Z,14.10
2023-05-18T08:41:39.190Z,14.10
2023-05-18T08:44:06.837Z,14.20
2023-05-18T08:46:34.457Z,14.30
2023-05-18T08:49:02.910Z,14.60
2023-05-18T08:51:30.494Z,14.60
2023-05-18T08:53:58.108Z,14.60
2023-05-18T08:56:25.738Z,14.60
2023-05-18T08:58:56.049Z,14.70
2023-05-18T09:01:24.500Z,14.80
2023-05-18T09:03:52.025Z,14.70
2023-05-18T09:06:19.702Z,14.80
2023-05-18T09:08:47.313Z,14.80
2023-05-18T09:11:14.957Z,14.90
2023-05-18T09:13:42.589Z,14.90
2023-05-18T09:16:10.270Z,15.10
2023-05-18T09:18:37.886Z,15.20
2023-05-18T09:21:05.465Z,15.30
2023-05-18T09:23:33.082Z,15.30
2023-05-18T09:26:00.705Z,15.40
2023-05-18T09:28:28.383Z,15.40
2023-05-18T09:30:55.994Z,15.50
2023-05-18T09:33:23.768Z,15.50
2023-05-18T09:35:52.028Z,15.50
2023-05-18T09:38:19.649Z,15.50
2023-05-18T09:40:48.059Z,15.60
2023-05-18T09:43:15.725Z,15.60
2023-05-18T09:45:43.337Z,15.70
2023-05-18T09:48:10.987Z,15.70
2023-05-18T09:50:38.642Z,15.80
2023-05-18T09:53:09.329Z,15.90
2023-05-18T09:55:45.935Z,16.00
2023-05-18T09:58:13.525Z,16.00
2023-05-18T10:00:49.839Z,16.00
2023-05-18T10:03:17.449Z,16.00
2023-05-18T10:05:45.063Z,16.00
2023-05-18T10:08:12.685Z,16.00
2023-05-18T10:10:40.379Z,16.20
2023-05-18T10:13:08.761Z,16.20
2023-05-18T10:15:37.151Z,16.20
2023-05-18T10:18:04.855Z,16.10
2023-05-18T10:20:32.599Z,16.20
2023-05-18T10:23:00.067Z,16.30
2023-05-18T10:25:27.677Z,16.30
2023-05-18T10:27:57.681Z,16.60
2023-05-18T10:30:25.319Z,16.70
2023-05-18T10:32:53.032Z,16.70
2023-05-18T10:35:20.591Z,16.70
2023-05-18T10:37:48.967Z,16.70
2023-05-18T10:40:17.472Z,16.80
2023-05-18T10:42:45.006Z,16.70
2023-05-18T10:45:13.398Z,16.90
2023-05-18T10:47:41.962Z,16.90
2023-05-18T10:50:09.455Z,16.90
2023-05-18T10:52:40.040Z,17.00
2023-05-18T10:55:07.683Z,17.10
2023-05-18T10:57:40.928Z,17.30
2023-05-18T11:00:08.543Z,17.40
2023-05-18T11:02:36.229Z,17.40
2023-05-18T11:05:03.827Z,17.60
2023-05-18T11:07:32.179Z,17.60
2023-05-18T11:10:00.622Z,17.50
2023-05-18T11:12:28.202Z,17.50
2023-05-18T11:14:55.878Z,17.60
2023-05-18T11:17:26.422Z,17.70
2023-05-18T11:20:09.053Z,17.70
2023-05-18T11:22:43.234Z,17.70
2023-05-18T11:25:10.826Z,17.70
2023-05-18T11:27:38.441Z,17.70
2023-05-18T11:30:15.117Z,17.80
2023-05-18T11:32:34.752Z,18.00
2023-05-18T11:35:02.985Z,17.90
2023-05-18T11:37:40.460Z,17.90
2023-05-18T11:40:13.505Z,17.90
2023-05-18T11:42:41.075Z,17.90
2023-05-18T11:45:08.764Z,18.00
2023-05-18T11:47:36.474Z,18.00
2023-05-18T11:50:03.984Z,18.10
2023-05-18T11:52:31.652Z,18.40
2023-05-18T11:55:01.966Z,18.40
2023-05-18T11:57:35.714Z,18.40
2023-05-18T12:00:03.367Z,18.60
2023-05-18T12:02:31.857Z,18.50
2023-05-18T12:05:02.648Z,18.50
2023-05-18T12:07:30.293Z,18.50
2023-05-18T12:10:09.436Z,18.60
2023-05-18T12:12:37.104Z,18.60
2023-05-18T12:15:04.682Z,18.70
2023-05-18T12:17:44.280Z,18.70
2023-05-18T12:20:18.336Z,18.70
2023-05-18T12:22:52.221Z,18.70
2023-05-18T12:25:19.619Z,18.80
2023-05-18T12:27:49.894Z,18.80
2023-05-18T12:30:23.630Z,18.80
2023-05-18T12:32:57.314Z,18.90
2023-05-18T12:35:28.001Z,18.90
2023-05-18T12:38:01.067Z,19.00
2023-05-18T12:40:28.707Z,19.00
2023-05-18T12:43:01.866Z,19.10
2023-05-18T12:45:29.655Z,19.20
2023-05-18T12:47:57.211Z,19.20
2023-05-18T12:50:24.776Z,19.10
2023-05-18T12:52:52.387Z,19.00
2023-05-18T12:55:22.854Z,19.00
2023-05-18T12:58:02.273Z,19.30
2023-05-18T13:00:32.524Z,19.40
2023-05-18T13:03:10.967Z,19.40
2023-05-18T13:05:36.970Z,19.40
2023-05-18T13:08:04.571Z,19.30
2023-05-18T13:10:35.203Z,19.20
2023-05-18T13:13:05.234Z,19.40
2023-05-18T13:15:35.565Z,19.50
2023-05-18T13:18:04.037Z,19.60
2023-05-18T13:20:44.028Z,19.60
2023-05-18T13:23:14.315Z,19.50
2023-05-18T13:25:41.947Z,19.60
2023-05-18T13:28:11.948Z,19.70
2023-05-18T13:30:40.408Z,19.70
2023-05-18T13:33:08.096Z,19.80
2023-05-18T13:35:36.400Z,19.90
2023-05-18T13:38:04.092Z,19.90
2023-05-18T13:40:31.706Z,19.90
2023-05-18T13:42:59.365Z,20.00
2023-05-18T13:45:27.017Z,20.10
2023-05-18T13:47:54.669Z,20.30
2023-05-18T13:50:23.128Z,20.50
2023-05-18T13:52:50.682Z,20.50
2023-05-18T13:55:18.270Z,20.70
2023-05-18T13:57:45.866Z,20.80
2023-05-18T14:00:13.643Z,20.70
2023-05-18T14:02:41.236Z,20.60
2023-05-18T14:05:08.840Z,20.70
2023-05-18T14:07:36.432Z,20.80
2023-05-18T14:10:04.036Z,20.80
2023-05-18T14:12:31.667Z,20.90
2023-05-18T14:14:59.299Z,20.90
2023-05-18T14:17:26.942Z,21.00
2023-05-18T14:19:54.527Z,21.10
2023-05-18T14:22:22.201Z,21.10
2023-05-18T14:24:50.563Z,21.30
2023-05-18T14:27:18.166Z,21.20
2023-05-18T14:29:45.859Z,21.40
2023-05-18T14:32:13.492Z,21.50
2023-05-18T14:34:41.102Z,21.50
2023-05-18T14:37:08.755Z,21.50
2023-05-18T14:39:36.339Z,21.60
2023-05-18T14:42:04.787Z,21.80
2023-05-18T14:44:32.414Z,21.80
2023-05-18T14:47:03.047Z,21.90
2023-05-18T14:49:30.579Z,22.10
2023-05-18T14:51:58.465Z,22.30
2023-05-18T14:54:26.095Z,22.40
2023-05-18T14:56:53.665Z,22.80
2023-05-18T14:59:21.315Z,22.90
2023-05-18T15:01:48.954Z,22.90
2023-05-18T15:04:16.624Z,22.90
2023-05-18T15:06:44.198Z,22.90
2023-05-18T15:09:11.810Z,22.90
2023-05-18T15:11:39.423Z,22.90
2023-05-18T15:14:07.085Z,22.90
2023-05-18T15:16:34.749Z,22.90
2023-05-18T15:19:02.355Z,23.00
2023-05-18T15:21:29.955Z,23.30
2023-05-18T15:23:57.559Z,23.40
2023-05-18T15:26:25.171Z,23.60
2023-05-18T15:28:52.852Z,23.70
2023-05-18T15:31:20.469Z,23.90
2023-05-18T15:33:48.832Z,24.00
2023-05-18T15:36:16.465Z,24.00
2023-05-18T15:38:44.048Z,24.10
2023-05-18T15:41:11.667Z,24.20
2023-05-18T15:43:39.282Z,24.20
2023-05-18T15:46:06.970Z,24.20
2023-05-18T15:48:35.324Z,24.10
2023-05-18T15:51:02.981Z,24.10
2023-05-18T15:53:31.347Z,24.10
2023-05-18T15:55:59.826Z,24.00
2023-05-18T15:58:28.136Z,24.00
2023-05-18T16:00:55.802Z,24.00
2023-05-18T16:03:23.557Z,23.90
2023-05-18T16:05:51.029Z,23.80
2023-05-18T16:08:18.663Z,23.60
2023-05-18T16:10:47.042Z,23.40
2023-05-18T16:13:15.453Z,23.30
2023-05-18T16:15:43.055Z,23.30
2023-05-18T16:18:10.733Z,23.20
2023-05-18T16:20:38.330Z,23.20
2023-05-18T16:23:05.933Z,23.20
2023-05-18T16:25:33.549Z,23.10
2023-05-18T16:28:01.187Z,23.00
2023-05-18T16:30:29.812Z,22.90
2023-05-18T16:32:57.275Z,22.80
2023-05-18T16:35:24.827Z,22.80
2023-05-18T16:37:52.411Z,23.10
2023-05-18T16:40:20.041Z,23.10
2023-05-18T16:42:47.691Z,23.20
2023-05-18T16:45:16.077Z,23.50
2023-05-18T16:47:44.611Z,23.50
2023-05-18T16:50:12.845Z,23.50
2023-05-18T16:52:40.463Z,23.40
2023-05-18T16:55:08.107Z,23.40
2023-05-18T16:57:36.173Z,23.30
2023-05-18T17:00:03.762Z,23.30
2023-05-18T17:02:32.845Z,23.40
2023-05-18T17:05:00.576Z,23.30
2023-05-18T17:07:28.186Z,23.30
2023-05-18T17:09:56.559Z,23.20
2023-05-18T17:12:24.215Z,23.20
2023-05-18T17:14:52.288Z,23.10
2023-05-18T17:17:19.444Z,23.00
2023-05-18T17:19:47.100Z,22.90
2023-05-18T17:22:14.690Z,22.70
2023-05-18T17:24:42.339Z,22.70
2023-05-18T17:27:10.030Z,22.50
2023-05-18T17:29:37.696Z,22.20
2023-05-18T17:32:05.447Z,22.00
2023-05-18T17:34:33.021Z,21.80
2023-05-18T17:37:00.621Z,21.50
2023-05-18T17:39:28.261Z,21.30
2023-05-18T17:41:55.950Z,20.90
2023-05-18T17:44:23.546Z,20.90
2023-05-18T17:46:51.241Z,20.70
2023-05-18T17:49:18.814Z,20.40
2023-05-18T17:51:46.411Z,20.20
2023-05-18T17:54:14.802Z,19.90
2023-05-18T17:56:42.458Z,19.90
2023-05-18T17:59:10.095Z,19.80
2023-05-18T18:01:37.752Z,19.70
2023-05-18T18:04:05.454Z,19.50
2023-05-18T18:06:32.968Z,19.60
2023-05-18T18:09:00.597Z,19.50
2023-05-18T18:11:28.318Z,19.40
2023-05-18T18:13:55.888Z,19.30
2023-05-18T18:16:24.289Z,19.10
2023-05-18T18:18:52.026Z,19.00
2023-05-18T18:21:19.589Z,19.00
2023-05-18T18:23:47.981Z,18.80
2023-05-18T18:26:16.387Z,18.70
2023-05-18T18:28:44.018Z,18.60
2023-05-18T18:31:11.678Z,18.50
2023-05-18T18:33:39.234Z,18.40
2023-05-18T18:36:06.858Z,18.30
2023-05-18T18:38:34.469Z,18.20
2023-05-18T18:41:02.110Z,18.10
2023-05-18T18:43:29.738Z,18.10
2023-05-18T18:45:57.499Z,18.00
2023-05-18T18:48:25.095Z,17.90
2023-05-18T18:50:52.729Z,17.90
2023-05-18T18:53:20.333Z,17.80
2023-05-18T18:55:47.977Z,17.70
2023-05-18T18:58:15.619Z,17.70
2023-05-18T19:00:43.224Z,17.60
2023-05-18T19:03:10.986Z,17.50
2023-05-18T19:05:38.524Z,17.50
2023-05-18T19:08:06.138Z,17.40
2023-05-18T19:10:33.775Z,17.30
2023-05-18T19:13:02.146Z,17.10
2023-05-18T19:15:29.892Z,17.10
2023-05-18T19:17:57.441Z,17.00
2023-05-18T19:20:25.007Z,16.90
2023-05-18T19:22:52.618Z,16.80
2023-05-18T19:25:20.251Z,16.70
2023-05-18T19:27:47.842Z,16.90
2023-05-18T19:30:15.491Z,16.80
2023-05-18T19:32:43.208Z,16.60
2023-05-18T19:35:10.749Z,16.50
2023-05-18T19:37:38.356Z,16.60
2023-05-18T19:40:05.978Z,16.70
2023-05-18T19:42:33.591Z,16.60
2023-05-18T19:45:01.970Z,16.40
2023-05-18T19:47:29.635Z,16.40
2023-05-18T19:49:57.228Z,16.20
2023-05-18T19:52:24.841Z,16.00
2023-05-18T19:54:52.488Z,15.80
2023-05-18T19:57:20.126Z,15.70
2023-05-18T19:59:52.099Z,15.40
2023-05-18T20:02:19.736Z,15.40
2023-05-18T20:04:47.306Z,15.20
2023-05-18T20:07:14.925Z,15.20
2023-05-18T20:09:42.576Z,15.10
2023-05-18T20:12:10.198Z,15.00
2023-05-18T20:14:37.795Z,14.90
2023-05-18T20:17:05.513Z,14.70
2023-05-18T20:19:33.084Z,14.70
2023-05-18T20:22:00.747Z,14.90
2023-05-18T20:24:28.335Z,14.80
2023-05-18T20:26:55.952Z,14.60
2023-05-18T20:29:23.560Z,14.40
2023-05-18T20:31:51.231Z,14.20
2023-05-18T20:34:18.812Z,14.00
2023-05-18T20:36:47.189Z,13.70
2023-05-18T20:39:15.591Z,13.60
2023-05-18T20:41:43.210Z,13.60
2023-05-18T20:44:10.824Z,13.50
2023-05-18T20:46:38.628Z,13.40
2023-05-18T20:49:06.117Z,13.60
2023-05-18T20:51:33.707Z,13.50
2023-05-18T20:54:01.358Z,13.40
2023-05-18T20:56:28.961Z,13.30
2023-05-18T20:58:56.565Z,13.20
2023-05-18T21:01:25.055Z,13.10
2023-05-18T21:03:52.744Z,13.10
2023-05-18T21:06:20.979Z,12.90
2023-05-18T21:08:49.439Z,12.90
2023-05-18T21:11:16.998Z,12.90
2023-05-18T21:13:44.613Z,12.80
2023-05-18T21:16:12.384Z,12.80
2023-05-18T21:18:39.896Z,12.70
2023-05-18T21:21:07.510Z,12.70
2023-05-18T21:23:35.153Z,12.60
2023-05-18T21:26:02.765Z,12.70
2023-05-18T21:28:30.366Z,12.60
2023-05-18T21:30:58.026Z,12.60
2023-05-18T21:33:26.457Z,12.60
2023-05-18T21:35:54.045Z,12.60
2023-05-18T21:38:21.679Z,12.60
2023-05-18T21:40:49.282Z,12.50
2023-05-18T21:43:16.881Z,12.80
2023-05-18T21:45:44.568Z,12.70
2023-05-18T21:48:12.195Z,12.60
2023-05-18T21:50:39.767Z,12.60
2023-05-18T21:53:07.420Z,12.80
2023-05-18T21:55:35.027Z,13.00
2023-05-18T21:58:02.651Z,12.80
2023-05-18T22:00:30.424Z,12.70
2023-05-18T22:02:57.957Z,12.80
2023-05-18T22:05:25.560Z,12.60
2023-05-18T22:07:53.221Z,12.50
2023-05-18T22:10:20.839Z,12.30
2023-05-18T22:12:49.210Z,12.10
2023-05-18T22:15:16.893Z,12.10
2023-05-18T22:17:44.607Z,12.00
2023-05-18T22:20:12.140Z,11.90
2023-05-18T22:22:40.550Z,11.80
2023-05-18T22:25:08.186Z,11.70
2023-05-18T22:27:35.799Z,11.70
2023-05-18T22:30:04.254Z,11.60
2023-05-18T22:32:31.955Z,11.60
2023-05-18T22:34:59.470Z,11.60
2023-05-18T22:37:27.164Z,11.50
2023-05-18T22:39:55.531Z,11.50
2023-05-18T22:42:23.145Z,11.50
2023-05-18T22:44:50.809Z,11.50
2023-05-18T22:47:18.407Z,11.40
2023-05-18T22:49:46.060Z,11.40
2023-05-18T22:52:13.707Z,11.40
2023-05-18T22:54:41.312Z,11.60
2023-05-18T22:57:09.689Z,11.50
2023-05-18T22:59:38.122Z,11.50
2023-05-18T23:02:05.808Z,11.50
2023-05-18T23:04:34.207Z,11.40
2023-05-18T23:07:02.551Z,11.30
2023-05-18T23:09:30.175Z,11.30
2023-05-18T23:11:57.779Z,11.30
2023-05-18T23:14:25.474Z,11.30
2023-05-18T23:16:53.074Z,11.30
2023-05-18T23:19:20.757Z,11.30
2023-05-18T23:21:48.330Z,11.30
2023-05-18T23:24:15.939Z,11.30
2023-05-18T23:26:44.343Z,11.50
2023-05-18T23:29:12.030Z,11.50
2023-05-18T23:31:39.651Z,11.40
2023-05-18T23:34:08.074Z,11.30
2023-05-18T23:36:36.431Z,11.20
2023-05-18T23:39:04.029Z,11.20
2023-05-18T23:41:31.643Z,11.20
2023-05-18T23:43:59.333Z,11.10
2023-05-18T23:46:27.687Z,11.30
2023-05-18T23:48:55.282Z,11.20
2023-05-18T23:51:22.923Z,11.40
2023-05-18T23:53:50.557Z,11.30
2023-05-18T23:56:18.898Z,11.30
2023-05-18T23:58:46.585Z,11.30
